Time;durP1;ratioP1;P1;durP2;ratioP2;P2;SDS_P1;SDS_P2;PMS_P1;PMS_P2;Temp;Humidity;BMP_temperature;BMP_pressure;BME280_temperature;BME280_humidity;BME280_pressure;Samples;Min_cycle;Max_cycle;Signal;HPM_P1;HPM_P2
2022/05/31 00:00:32;;;;;;;8.25;6.00;;;;;;;9.70;82.03;101265.81;5094731;28;20111;-62
2022/05/31 00:02:59;;;;;;;10.05;6.80;;;;;;;9.65;82.79;101278.91;5098223;28;20062;-61
2022/05/31 00:05:25;;;;;;;8.82;6.28;;;;;;;9.63;82.75;101278.03;5097746;28;20493;-61
2022/05/31 00:07:51;;;;;;;9.65;6.15;;;;;;;9.62;82.26;101260.63;5097792;28;20031;-62
2022/05/31 00:10:16;;;;;;;8.85;5.97;;;;;;;9.60;82.70;101264.97;5097636;28;20431;-62
2022/05/31 00:12:42;;;;;;;8.07;5.75;;;;;;;9.54;81.92;101266.72;5079554;28;20036;-61
2022/05/31 00:15:10;;;;;;;8.70;6.43;;;;;;;9.45;82.66;101262.41;5097863;28;20028;-62
2022/05/31 00:17:35;;;;;;;10.75;6.50;;;;;;;9.34;83.10;101265.06;5097866;28;20119;-63
2022/05/31 00:20:01;;;;;;;8.65;6.60;;;;;;;9.36;82.70;101262.41;5093633;28;20466;-61
2022/05/31 00:22:27;;;;;;;9.98;6.63;;;;;;;9.30;83.53;101272.88;5097530;28;20454;-62
2022/05/31 00:24:53;;;;;;;8.07;6.13;;;;;;;9.27;83.47;101271.13;5097545;28;20135;-62
2022/05/31 00:27:21;;;;;;;9.38;6.35;;;;;;;9.28;82.83;101267.66;5097335;28;20039;-61
2022/05/31 00:29:47;;;;;;;7.97;6.47;;;;;;;9.14;83.55;101266.81;5097493;28;20040;-63
2022/05/31 00:32:15;;;;;;;8.82;6.50;;;;;;;9.08;83.57;101277.25;5097117;28;20445;-63
2022/05/31 00:34:44;;;;;;;13.50;6.65;;;;;;;9.07;83.75;101272.91;5097015;28;20031;-62
2022/05/31 00:37:10;;;;;;;12.20;6.60;;;;;;;9.09;83.74;101268.53;5097313;28;20032;-62
2022/05/31 00:39:35;;;;;;;10.82;6.85;;;;;;;9.07;83.12;101276.38;5097237;28;20097;-62
2022/05/31 00:42:08;;;;;;;8.65;6.00;;;;;;;9.02;82.67;101277.25;5097255;28;20064;-61
2022/05/31 00:44:35;;;;;;;12.23;6.18;;;;;;;8.89;83.26;101270.28;5097209;28;20027;-61
2022/05/31 00:47:09;;;;;;;10.18;6.80;;;;;;;8.78;84.05;101272.91;5097028;28;20038;-60
2022/05/31 00:49:47;;;;;;;9.18;6.45;;;;;;;8.87;84.02;101279.84;5097067;28;20028;-62
2022/05/31 00:52:17;;;;;;;11.65;7.10;;;;;;;8.87;84.05;101279.84;5096822;28;20398;-62
2022/05/31 00:54:57;;;;;;;9.32;6.35;;;;;;;8.75;84.11;101277.25;5096685;28;20036;-63
2022/05/31 00:57:23;;;;;;;12.68;6.15;;;;;;;8.71;84.17;101273.75;5096961;28;20101;-62
2022/05/31 00:59:52;;;;;;;10.77;6.50;;;;;;;8.61;85.24;101278.09;5096762;28;20384;-62
2022/05/31 01:02:18;;;;;;;10.02;6.95;;;;;;;8.69;84.93;101267.66;5096985;28;20032;-61
2022/05/31 01:04:50;;;;;;;10.15;6.65;;;;;;;8.72;85.36;101271.16;5096670;28;20027;-62
2022/05/31 01:07:16;;;;;;;;;;;;;;;8.83;83.07;101273.75;5096695;28;20361;-62
2022/05/31 01:09:41;;;;;;;9.95;6.43;;;;;;;8.84;84.69;101275.50;5096789;28;19912;-62
2022/05/31 01:12:07;;;;;;;9.45;6.68;;;;;;;8.89;84.46;101268.53;5096455;28;20054;-62
2022/05/31 01:14:33;;;;;;;9.63;6.90;;;;;;;8.86;84.16;101263.31;5096849;28;20023;-62
2022/05/31 01:17:02;;;;;;;7.82;6.22;;;;;;;8.82;84.54;101250.28;5096617;28;20059;-62
2022/05/31 01:22:12;;;;;;;10.30;6.50;;;;;;;8.86;85.21;101259.84;5095962;28;20390;-63
2022/05/31 01:24:47;;;;;;;10.18;6.15;;;;;;;8.89;84.84;101259.84;5096153;28;20060;-64
2022/05/31 01:27:32;;;;;;;13.40;6.43;;;;;;;8.84;84.60;101259.84;5096372;28;20039;-61
2022/05/31 01:30:00;;;;;;;9.88;7.05;;;;;;;8.81;84.84;101251.16;5094061;28;20164;-62
2022/05/31 01:32:25;;;;;;;8.15;6.53;;;;;;;8.79;84.94;101240.72;5095156;28;20047;-61
2022/05/31 01:35:02;;;;;;;9.18;6.80;;;;;;;8.75;84.58;101253.75;5095813;28;20028;-62
2022/05/31 01:37:40;;;;;;;9.27;6.88;;;;;;;8.65;85.93;101255.50;5095871;28;20032;-62
2022/05/31 01:40:12;;;;;;;10.68;7.05;;;;;;;8.62;86.05;101261.59;5095996;28;20067;-62
2022/05/31 01:42:42;;;;;;;8.95;7.03;;;;;;;8.64;85.29;101253.75;5095830;28;20039;-61
2022/05/31 01:45:12;;;;;;;12.95;6.90;;;;;;;8.58;85.49;101254.63;5095823;28;20032;-62
2022/05/31 01:47:40;;;;;;;12.55;7.10;;;;;;;8.50;86.45;101245.88;5095867;28;20048;-62
2022/05/31 01:50:18;;;;;;;11.02;7.25;;;;;;;8.46;86.90;101252.00;5095790;28;20036;-62
2022/05/31 01:52:45;;;;;;;10.55;7.00;;;;;;;8.48;86.92;101255.47;5095724;28;20035;-63
2022/05/31 01:55:12;;;;;;;7.90;6.57;;;;;;;8.46;86.80;101246.78;5095628;28;20027;-62
2022/05/31 01:57:40;;;;;;;10.30;7.10;;;;;;;8.48;87.18;101258.09;5095413;28;20431;-62
2022/05/31 02:00:09;;;;;;;10.85;7.38;;;;;;;8.52;86.31;101251.13;5095530;28;20042;-62
2022/05/31 02:02:34;;;;;;;8.32;6.90;;;;;;;8.52;86.84;101257.19;5095759;28;20047;-62
2022/05/31 02:05:00;;;;;;;13.52;7.30;;;;;;;8.50;85.91;101245.03;5095692;28;20347;-62
2022/05/31 02:07:26;;;;;;;12.60;7.30;;;;;;;8.49;86.04;101248.50;5095709;28;20085;-62
2022/05/31 02:09:53;;;;;;;11.57;7.15;;;;;;;8.50;86.56;101247.63;5095397;28;20111;-64
2022/05/31 02:12:21;;;;;;;9.93;7.45;;;;;;;8.52;86.63;101245.91;5095689;28;20042;-62
2022/05/31 02:14:46;;;;;;;10.60;7.88;;;;;;;8.52;87.16;101248.50;5095521;28;20032;-63
2022/05/31 02:17:12;;;;;;;11.43;7.65;;;;;;;8.54;86.66;101247.63;5095548;28;20066;-63
2022/05/31 02:19:38;;;;;;;11.02;7.60;;;;;;;8.62;86.05;101240.72;5095417;28;20396;-62
2022/05/31 02:22:07;;;;;;;10.75;7.50;;;;;;;8.64;85.90;101238.97;5095411;28;20028;-62
2022/05/31 02:24:33;;;;;;;10.73;7.93;;;;;;;8.67;85.51;101245.91;5077350;28;20071;-62
2022/05/31 02:26:59;;;;;;;11.65;6.80;;;;;;;8.76;85.20;101238.09;5095251;28;20028;-62
2022/05/31 02:29:27;;;;;;;12.98;7.25;;;;;;;8.79;85.21;101234.63;5095233;28;20028;-62
2022/05/31 02:31:53;;;;;;;10.80;7.57;;;;;;;8.85;84.74;101232.88;5094909;28;20036;-62
2022/05/31 02:34:23;;;;;;;9.95;6.80;;;;;;;8.94;84.06;101235.50;5095226;28;20035;-63
2022/05/31 02:36:49;;;;;;;10.95;7.40;;;;;;;8.92;84.53;101233.75;5095220;28;20024;-62
2022/05/31 02:39:15;;;;;;;10.73;6.60;;;;;;;8.95;84.42;101228.53;5095268;28;20043;-63
2022/05/31 02:41:40;;;;;;;10.80;7.57;;;;;;;8.95;84.31;101229.41;5095176;28;20107;-63
2022/05/31 02:44:06;;;;;;;11.95;7.30;;;;;;;8.97;84.74;101224.19;5094628;28;20028;-62
2022/05/31 02:46:32;;;;;;;9.82;7.40;;;;;;;8.96;85.51;101219.84;5095113;28;20063;-62
2022/05/31 02:48:59;;;;;;;10.23;6.95;;;;;;;9.02;85.33;101225.03;5094937;28;20406;-62
2022/05/31 02:51:24;;;;;;;10.80;7.03;;;;;;;9.04;84.80;101234.59;5092059;28;20484;-63
2022/05/31 02:53:50;;;;;;;9.00;6.68;;;;;;;9.03;84.61;101222.41;5094899;28;20036;-62
2022/05/31 02:56:15;;;;;;;9.90;6.82;;;;;;;9.03;84.79;101222.41;5095330;28;20032;-63
2022/05/31 02:58:40;;;;;;;10.75;7.15;;;;;;;9.00;85.29;101224.19;5095083;28;20361;-62
2022/05/31 03:01:24;;;;;;;10.98;6.75;;;;;;;8.98;85.25;101212.88;5094909;28;20105;-63
2022/05/31 03:03:49;;;;;;;10.73;7.00;;;;;;;8.97;85.34;101222.44;5094892;28;20047;-62
2022/05/31 03:06:15;;;;;;;11.57;7.55;;;;;;;8.86;85.64;101224.16;5094753;28;20040;-62
2022/05/31 03:08:41;;;;;;;9.65;7.28;;;;;;;8.79;85.84;101214.63;5094798;28;20038;-62
2022/05/31 03:11:11;;;;;;;11.55;7.28;;;;;;;8.80;86.55;101220.72;5094837;28;20097;-61
2022/05/31 03:13:38;;;;;;;9.55;7.28;;;;;;;8.75;86.27;101198.97;5094781;28;20032;-61
2022/05/31 03:16:04;;;;;;;12.90;7.97;;;;;;;8.88;86.17;101222.44;5094974;28;20347;-61
2022/05/31 03:18:37;;;;;;;11.50;7.60;;;;;;;8.93;86.25;101215.47;5094350;28;20040;-62
2022/05/31 03:21:09;;;;;;;10.80;7.55;;;;;;;8.96;86.55;101219.84;5094611;28;20036;-62
2022/05/31 03:23:40;;;;;;;9.60;7.10;;;;;;;9.00;86.30;101213.75;5094563;28;20139;-62
2022/05/31 03:26:08;;;;;;;9.20;7.22;;;;;;;9.03;85.66;101213.72;5094899;28;20072;-63
2022/05/31 03:28:35;;;;;;;8.93;6.40;;;;;;;9.00;85.74;101216.34;5094740;28;20351;-63
2022/05/31 03:31:02;;;;;;;11.00;6.82;;;;;;;9.00;85.95;101211.13;5094939;28;20036;-63
2022/05/31 03:33:27;;;;;;;11.07;6.55;;;;;;;9.03;85.32;101201.53;5094598;28;20028;-63
2022/05/31 03:35:53;;;;;;;9.70;6.97;;;;;;;9.08;86.47;101210.25;5094851;28;20338;-63
2022/05/31 03:38:18;;;;;;;13.05;7.00;;;;;;;9.09;86.56;101208.50;5094637;28;20584;-63
2022/05/31 03:40:56;;;;;;;11.02;7.22;;;;;;;9.11;86.03;101214.59;5094747;28;20417;-63
2022/05/31 03:43:22;;;;;;;9.70;7.28;;;;;;;9.04;86.38;101191.97;5094460;28;20041;-62
2022/05/31 03:45:47;;;;;;;9.93;7.53;;;;;;;9.16;86.66;101212.84;5094380;28;20107;-62
2022/05/31 03:48:13;;;;;;;13.45;7.57;;;;;;;9.13;84.89;101201.53;5094727;28;20067;-63
2022/05/31 03:50:39;;;;;;;13.35;7.72;;;;;;;9.03;85.80;101200.66;5094272;28;20041;-63
2022/05/31 03:53:10;;;;;;;11.85;7.80;;;;;;;9.02;85.67;101214.59;5094702;28;20047;-63
2022/05/31 03:55:37;;;;;;;10.25;7.18;;;;;;;8.98;85.82;101220.72;5096270;28;20047;-62
2022/05/31 03:58:03;;;;;;;12.00;7.20;;;;;;;8.88;85.42;101216.34;5098015;28;20116;-61
2022/05/31 04:00:28;;;;;;;10.55;7.32;;;;;;;8.87;85.92;101212.00;5097853;28;20465;-62
2022/05/31 04:02:55;;;;;;;13.05;7.53;;;;;;;8.88;86.40;101212.00;5097975;28;20032;-63
2022/05/31 04:05:20;;;;;;;10.30;7.53;;;;;;;8.83;86.24;101208.50;5098031;28;20035;-62
2022/05/31 04:07:46;;;;;;;10.90;7.70;;;;;;;8.89;85.96;101207.66;5097859;28;20035;-61
2022/05/31 04:10:11;;;;;;;11.23;7.60;;;;;;;8.91;86.21;101205.91;5097858;28;20032;-62
2022/05/31 04:12:38;;;;;;;11.93;7.80;;;;;;;8.94;86.85;101211.13;5097647;28;20031;-62
2022/05/31 04:15:04;;;;;;;11.23;7.43;;;;;;;8.93;86.35;101201.56;5097525;28;20107;-62
2022/05/31 04:17:29;;;;;;;10.90;7.22;;;;;;;8.97;86.97;101200.69;5097736;28;20123;-62
2022/05/31 04:19:55;;;;;;;10.65;7.75;;;;;;;9.08;87.16;101201.53;5097445;28;20051;-62
2022/05/31 04:22:20;;;;;;;11.43;7.20;;;;;;;9.22;86.79;101198.91;5097756;28;20036;-63
2022/05/31 04:24:45;;;;;;;13.00;8.32;;;;;;;9.31;85.74;101199.75;5097372;28;20048;-62
2022/05/31 04:27:17;;;;;;;12.82;7.82;;;;;;;9.39;85.66;101194.50;5097242;28;20129;-61
2022/05/31 04:29:43;;;;;;;10.77;7.65;;;;;;;9.39;84.51;101195.38;5097759;28;20031;-61
2022/05/31 04:32:09;;;;;;;13.10;8.07;;;;;;;9.39;85.88;101194.50;5097211;28;20039;-62
2022/05/31 04:34:34;;;;;;;11.18;7.95;;;;;;;9.44;85.36;101197.97;5097322;28;20100;-63
2022/05/31 04:37:00;;;;;;;10.95;8.13;;;;;;;9.38;84.91;101198.84;5097503;28;20036;-62
2022/05/31 04:39:27;;;;;;;12.27;7.78;;;;;;;9.38;84.82;101208.44;5097197;28;20031;-62
2022/05/31 04:41:52;;;;;;;11.63;8.02;;;;;;;9.31;85.32;101194.53;5097325;28;20024;-62
2022/05/31 04:44:18;;;;;;;12.07;8.00;;;;;;;9.26;85.46;101201.50;5096911;28;20063;-63
2022/05/31 04:46:44;;;;;;;11.05;8.48;;;;;;;9.23;85.89;101200.63;5097409;28;20034;-61
2022/05/31 04:49:09;;;;;;;13.77;8.70;;;;;;;9.23;85.85;101193.66;5097049;28;20359;-61
2022/05/31 04:51:35;;;;;;;11.25;8.07;;;;;;;9.28;86.00;101191.94;5096900;28;20112;-63
2022/05/31 04:54:02;;;;;;;16.05;8.63;;;;;;;9.28;85.96;101197.16;5097155;28;20028;-62
2022/05/31 04:56:27;;;;;;;12.50;9.00;;;;;;;9.40;86.53;101196.22;5096792;28;20079;-63
2022/05/31 04:58:53;;;;;;;11.32;8.52;;;;;;;9.49;86.28;101195.34;5096769;28;20024;-63
2022/05/31 05:01:20;;;;;;;13.52;8.98;;;;;;;9.50;85.52;101203.19;5079281;28;20032;-62
2022/05/31 05:03:45;;;;;;;13.10;8.50;;;;;;;9.56;85.64;101195.31;5096678;28;20036;-62
2022/05/31 05:06:13;;;;;;;14.57;9.18;;;;;;;9.68;86.04;101192.66;5096542;28;20123;-62
2022/05/31 05:08:39;;;;;;;12.48;9.05;;;;;;;9.75;86.36;101190.88;5096945;28;20110;-62
2022/05/31 05:11:07;;;;;;;12.32;9.32;;;;;;;9.82;85.25;101197.84;5096401;28;20042;-62
2022/05/31 05:13:32;;;;;;;11.90;8.98;;;;;;;9.90;84.75;101190.81;5096669;28;20043;-61
2022/05/31 05:15:59;;;;;;;15.55;9.18;;;;;;;9.96;84.73;101188.16;5096069;28;20048;-62
2022/05/31 05:18:26;;;;;;;11.13;8.73;;;;;;;10.04;84.57;101191.59;5096603;28;20036;-62
2022/05/31 05:20:51;;;;;;;12.43;9.48;;;;;;;10.04;84.32;101185.53;5096625;28;20119;-62
2022/05/31 05:23:17;;;;;;;13.75;9.52;;;;;;;10.04;83.89;101185.53;5096513;28;20073;-64
2022/05/31 05:25:53;;;;;;;14.57;9.02;;;;;;;10.04;84.17;101186.38;5096146;28;20173;-62
2022/05/31 05:31:04;;;;;;;14.20;9.23;;;;;;;10.15;84.18;101188.06;5096268;28;20097;-62
2022/05/31 05:33:30;;;;;;;12.90;9.30;;;;;;;10.13;84.57;101183.72;5096418;28;20090;-62
2022/05/31 05:35:56;;;;;;;13.88;9.90;;;;;;;10.23;84.49;101186.28;5096327;28;20036;-61
2022/05/31 05:38:21;;;;;;;13.95;9.80;;;;;;;10.23;84.31;101189.78;5092437;28;20047;-62
2022/05/31 05:40:47;;;;;;;14.68;9.70;;;;;;;10.26;84.27;101184.53;5095691;28;20027;-63
2022/05/31 05:43:13;;;;;;;13.73;9.52;;;;;;;10.31;84.33;101179.28;5095545;28;20420;-64
2022/05/31 05:45:38;;;;;;;13.98;10.20;;;;;;;10.33;84.04;101183.63;5095672;28;20035;-62
2022/05/31 05:48:05;;;;;;;12.52;9.63;;;;;;;10.34;84.29;101181.88;5095818;28;20036;-62
2022/05/31 05:50:33;;;;;;;17.17;9.85;;;;;;;10.35;83.80;101181.00;5092474;28;20096;-62
2022/05/31 05:53:08;;;;;;;15.13;9.70;;;;;;;10.39;83.64;101187.94;5095618;28;20043;-62
2022/05/31 05:55:35;;;;;;;14.35;9.98;;;;;;;10.38;84.46;101192.31;5095622;28;20110;-62
2022/05/31 05:58:02;;;;;;;14.48;10.07;;;;;;;10.45;84.25;101187.88;5095813;28;20424;-62
2022/05/31 06:00:29;;;;;;;13.15;10.50;;;;;;;10.57;83.81;101185.16;5095235;28;20360;-62
2022/05/31 06:03:07;;;;;;;13.95;10.52;;;;;;;10.63;83.64;101182.50;5095119;28;20032;-63
2022/05/31 06:05:33;;;;;;;13.85;10.38;;;;;;;10.71;83.92;101183.31;5095226;28;20039;-63
2022/05/31 06:08:09;;;;;;;15.07;10.50;;;;;;;10.82;83.69;101184.09;5095411;28;20020;-62
2022/05/31 06:10:45;;;;;;;12.95;11.02;;;;;;;10.86;83.67;101169.22;5095122;28;20092;-63
2022/05/31 06:13:23;;;;;;;16.58;10.70;;;;;;;11.02;83.47;101180.41;5095212;28;20411;-62
2022/05/31 06:15:52;;;;;;;15.02;11.10;;;;;;;11.02;83.31;101180.41;5095346;28;20028;-63
2022/05/31 06:18:22;;;;;;;16.33;10.65;;;;;;;11.09;82.98;101176.84;5094291;28;20031;-64
2022/05/31 06:20:53;;;;;;;16.52;11.27;;;;;;;11.05;82.77;101170.78;5095285;28;20343;-62
2022/05/31 06:23:19;;;;;;;18.95;11.68;;;;;;;11.01;83.02;101183.91;5095037;28;20044;-62
2022/05/31 06:25:44;;;;;;;15.88;11.43;;;;;;;11.03;83.63;101179.53;5095134;28;20062;-62
2022/05/31 06:28:09;;;;;;;15.77;11.48;;;;;;;11.13;83.17;101179.41;5094481;28;20024;-62
2022/05/31 06:30:36;;;;;;;14.70;11.50;;;;;;;11.30;82.59;101183.59;5094890;28;20427;-63
2022/05/31 06:33:01;;;;;;;16.23;10.88;;;;;;;11.46;82.34;101188.66;5094898;28;20058;-63
2022/05/31 06:35:26;;;;;;;17.25;11.60;;;;;;;11.55;82.11;101177.22;5077018;28;20059;-63
2022/05/31 06:37:52;;;;;;;15.93;11.07;;;;;;;11.73;80.67;101194.47;5094968;28;20443;-62
2022/05/31 06:40:17;;;;;;;15.25;11.02;;;;;;;11.84;80.53;101185.59;5094738;28;20106;-62
2022/05/31 06:42:42;;;;;;;18.08;11.10;;;;;;;11.93;79.23;101192.50;5094643;28;20028;-62
2022/05/31 06:45:08;;;;;;;15.98;10.85;;;;;;;12.00;77.89;101188.88;5091268;28;20067;-63
2022/05/31 06:47:33;;;;;;;15.50;11.43;;;;;;;12.07;77.42;101193.16;5094731;28;20070;-63
2022/05/31 06:49:58;;;;;;;16.75;11.02;;;;;;;12.14;77.43;101194.81;5094516;28;20338;-62
2022/05/31 06:57:52;;;;;;;17.48;10.93;;;;;;;12.08;76.48;101188.78;5094207;28;20054;-63
2022/05/31 07:00:20;;;;;;;17.02;10.70;;;;;;;12.10;75.98;101189.66;5076718;28;20036;-62
2022/05/31 07:02:46;;;;;;;14.23;9.82;;;;;;;12.11;74.89;101192.25;5094608;28;20119;-62
2022/05/31 07:05:13;;;;;;;14.88;9.70;;;;;;;12.11;74.59;101187.00;5094474;28;20028;-62
2022/05/31 07:07:39;;;;;;;12.93;9.38;;;;;;;12.17;74.13;101180.78;5094532;28;20101;-62
2022/05/31 07:10:06;;;;;;;14.55;9.05;;;;;;;12.21;73.55;101182.47;5094195;28;20455;-62
2022/05/31 07:12:32;;;;;;;14.20;9.15;;;;;;;12.32;71.89;101180.53;5094090;28;20407;-63
2022/05/31 07:14:58;;;;;;;14.02;9.70;;;;;;;12.44;71.86;101182.13;5094607;28;20054;-62
2022/05/31 07:17:23;;;;;;;14.60;9.57;;;;;;;12.60;72.69;101182.75;5094241;28;20335;-62
2022/05/31 07:19:48;;;;;;;13.07;9.52;;;;;;;12.73;71.40;101185.16;5091320;28;20121;-63
2022/05/31 07:22:15;;;;;;;12.73;9.52;;;;;;;12.93;71.22;101176.94;5094483;28;20408;-62
2022/05/31 07:24:40;;;;;;;12.40;9.20;;;;;;;13.17;70.63;101175.63;5094302;28;20055;-62
2022/05/31 07:27:06;;;;;;;11.63;8.80;;;;;;;13.31;68.33;101176.25;5094569;28;20027;-62
2022/05/31 07:29:31;;;;;;;13.30;9.80;;;;;;;13.45;67.73;101176.84;5095787;28;20032;-63
2022/05/31 07:31:56;;;;;;;13.80;8.73;;;;;;;13.42;67.91;101163.75;5098118;28;20415;-62
2022/05/31 07:34:23;;;;;;;11.00;8.50;;;;;;;13.54;67.82;101175.78;5098456;28;20081;-62
2022/05/31 07:36:49;;;;;;;11.50;8.18;;;;;;;13.58;67.10;101177.47;5098057;28;20035;-62
2022/05/31 07:39:17;;;;;;;12.30;8.00;;;;;;;13.57;67.12;101179.22;5097823;28;20028;-61
2022/05/31 07:41:43;;;;;;;10.73;7.47;;;;;;;13.62;67.32;101175.63;5097796;28;20028;-62
2022/05/31 07:44:09;;;;;;;11.18;7.90;;;;;;;13.70;67.01;101171.06;5098058;28;20032;-63
2022/05/31 07:46:35;;;;;;;8.73;7.40;;;;;;;13.71;67.00;101172.81;5098286;28;20032;-62
2022/05/31 07:49:00;;;;;;;9.50;7.20;;;;;;;13.74;67.95;101170.97;5098128;28;20076;-62
2022/05/31 07:51:27;;;;;;;11.65;7.90;;;;;;;13.85;67.80;101165.50;5098145;28;20063;-63
2022/05/31 07:53:53;;;;;;;10.45;7.90;;;;;;;13.88;67.33;101163.66;5097873;28;20073;-63
2022/05/31 07:56:19;;;;;;;14.93;7.78;;;;;;;13.92;67.27;101160.06;5098079;28;20032;-63
2022/05/31 07:58:46;;;;;;;12.48;7.85;;;;;;;13.92;67.13;101161.81;5097663;28;20058;-63
2022/05/31 08:01:14;;;;;;;11.70;7.63;;;;;;;13.96;67.52;101160.88;5097695;28;20426;-62
2022/05/31 08:03:39;;;;;;;9.25;7.00;;;;;;;13.97;66.38;101156.47;5097778;28;20028;-62
2022/05/31 08:06:07;;;;;;;11.07;7.35;;;;;;;13.98;66.19;101160.84;5097499;28;20446;-62
2022/05/31 08:08:34;;;;;;;9.90;7.43;;;;;;;14.01;65.92;101161.63;5097633;28;20164;-62
2022/05/31 08:11:10;;;;;;;9.60;7.47;;;;;;;14.03;66.00;101158.94;5097428;28;20422;-61
2022/05/31 08:13:36;;;;;;;8.85;6.85;;;;;;;14.04;66.15;101156.28;5097209;28;20455;-63
2022/05/31 08:16:03;;;;;;;11.07;7.45;;;;;;;14.07;65.64;101156.22;5097489;28;20054;-63
2022/05/31 08:18:29;;;;;;;10.40;7.90;;;;;;;14.04;65.18;101151.00;5097347;28;20028;-62
2022/05/31 08:21:19;;;;;;;8.60;7.32;;;;;;;14.14;65.30;101149.94;5097259;28;20343;-62
2022/05/31 08:23:44;;;;;;;11.20;7.35;;;;;;;14.10;64.30;101145.63;5096842;28;20135;-63
2022/05/31 08:26:11;;;;;;;12.30;8.90;;;;;;;14.14;65.80;101144.66;5097287;28;20064;-62
2022/05/31 08:28:37;;;;;;;11.30;8.13;;;;;;;14.15;66.55;101148.16;5097180;28;20036;-63
2022/05/31 08:31:05;;;;;;;14.90;8.70;;;;;;;14.21;66.99;101140.09;5097347;28;20115;-62
2022/05/31 08:33:31;;;;;;;10.13;7.90;;;;;;;14.35;68.45;101139.78;5096902;28;20027;-63
2022/05/31 08:35:57;;;;;;;11.43;8.57;;;;;;;14.44;65.60;101150.13;5097482;28;20039;-63
2022/05/31 08:38:23;;;;;;;11.48;8.15;;;;;;;14.49;65.74;101143.84;5097091;28;20024;-63
2022/05/31 08:41:07;;;;;;;10.10;7.28;;;;;;;14.69;66.86;101146.00;5096099;28;20028;-62
2022/05/31 08:43:59;;;;;;;10.43;7.50;;;;;;;14.85;65.61;101139.41;5096764;28;20028;-63
2022/05/31 08:46:32;;;;;;;11.13;7.88;;;;;;;14.97;64.08;101143.47;5096905;28;20028;-62
2022/05/31 08:49:10;;;;;;;11.27;8.20;;;;;;;15.12;63.47;101139.56;5096982;28;20032;-62
2022/05/31 08:51:54;;;;;;;14.13;8.55;;;;;;;15.38;64.07;101142.34;5096988;28;20093;-63
2022/05/31 08:57:45;;;;;;;9.13;6.32;;;;;;;16.08;60.56;101137.66;5042255;28;20048;-63
2022/05/31 09:00:16;;;;;;;8.35;6.15;;;;;;;16.08;57.93;101121.81;5096768;28;20039;-63
2022/05/31 09:02:48;;;;;;;11.98;6.65;;;;;;;16.29;57.73;101136.94;5096544;28;20455;-62
2022/05/31 09:05:30;;;;;;;8.55;6.43;;;;;;;16.61;56.51;101132.41;5096314;28;20024;-63
2022/05/31 09:08:06;;;;;;;10.07;6.13;;;;;;;17.45;54.47;101129.44;5096659;28;20117;-64
2022/05/31 09:10:51;;;;;;;9.65;5.90;;;;;;;18.53;53.58;101125.19;5096325;28;20020;-64
2022/05/31 09:13:22;;;;;;;8.73;6.53;;;;;;;18.18;51.25;101129.28;5095957;28;20462;-63
2022/05/31 09:15:55;;;;;;;8.53;6.70;;;;;;;18.56;52.88;101131.19;5096718;28;20028;-63
2022/05/31 09:18:32;;;;;;;9.82;6.25;;;;;;;19.80;47.38;101127.47;5096223;28;20028;-63
2022/05/31 09:21:04;;;;;;;6.22;5.28;;;;;;;20.65;45.37;101119.78;5096192;28;20028;-63
2022/05/31 09:23:37;;;;;;;7.00;5.15;;;;;;;21.32;42.65;101118.09;5095759;28;20117;-63
2022/05/31 09:26:18;;;;;;;6.38;5.25;;;;;;;21.45;41.03;101120.03;5096010;28;20039;-63
2022/05/31 09:28:53;;;;;;;7.18;5.13;;;;;;;21.06;42.80;101112.34;5095785;28;20036;-64
2022/05/31 09:31:47;;;;;;;7.03;5.35;;;;;;;21.00;44.37;101122.41;5096036;28;20035;-65
2022/05/31 09:34:22;;;;;;;6.30;5.07;;;;;;;20.03;43.74;101126.38;5095708;28;20042;-64
2022/05/31 09:37:05;;;;;;;7.03;5.32;;;;;;;19.37;47.37;101128.56;5095661;28;20031;-64
2022/05/31 09:39:43;;;;;;;10.10;5.40;;;;;;;18.85;48.54;101130.00;5096023;28;20035;-64
2022/05/31 09:42:21;;;;;;;7.57;5.75;;;;;;;18.60;48.59;101129.31;5095577;28;20028;-63
2022/05/31 09:44:58;;;;;;;9.57;6.30;;;;;;;18.40;48.11;101128.31;5095648;28;20116;-64
2022/05/31 09:47:26;;;;;;;6.65;5.60;;;;;;;18.22;48.73;101125.56;5095935;28;20281;-63
2022/05/31 09:49:53;;;;;;;8.85;6.10;;;;;;;18.13;48.08;101124.16;5095808;28;20020;-62
2022/05/31 09:52:36;;;;;;;7.88;6.07;;;;;;;18.33;50.33;101120.72;5094851;28;20432;-63
2022/05/31 09:58:32;;;;;;;9.70;6.03;;;;;;;18.05;50.96;101119.16;5095658;28;20363;-62
2022/05/31 10:01:15;;;;;;;10.63;6.28;;;;;;;17.62;51.05;101116.44;5095222;28;20039;-63
2022/05/31 10:03:46;;;;;;;8.43;6.32;;;;;;;17.44;50.71;101117.13;5095397;28;20035;-64
2022/05/31 10:06:25;;;;;;;9.23;6.03;;;;;;;17.46;51.51;101115.28;5095061;28;20359;-63
2022/05/31 10:08:52;;;;;;;7.82;6.95;;;;;;;17.52;49.85;101121.19;5095337;28;20110;-62
2022/05/31 10:11:32;;;;;;;9.55;7.25;;;;;;;17.74;52.29;101116.84;5095241;28;20039;-62
2022/05/31 10:14:19;;;;;;;8.65;6.22;;;;;;;17.74;50.46;101116.00;5094990;28;20024;-62
2022/05/31 10:16:47;;;;;;;9.00;6.80;;;;;;;18.04;49.43;101121.84;5094576;28;20358;-64
2022/05/31 10:19:28;;;;;;;10.30;7.60;;;;;;;18.22;49.54;101105.22;5095160;28;20032;-63
2022/05/31 10:21:54;;;;;;;10.38;7.07;;;;;;;18.11;49.46;101103.94;5095249;28;20028;-63
2022/05/31 10:24:25;;;;;;;10.73;6.70;;;;;;;17.82;48.98;101098.03;5095226;28;20379;-63
2022/05/31 10:27:21;;;;;;;9.32;6.70;;;;;;;17.66;50.30;101112.78;5095339;28;20036;-62
2022/05/31 10:30:00;;;;;;;8.82;6.75;;;;;;;17.49;50.43;101116.00;5094938;28;20032;-63
2022/05/31 10:32:41;;;;;;;8.52;6.80;;;;;;;17.37;50.78;101116.47;5095204;28;20104;-63
2022/05/31 10:35:17;;;;;;;9.68;6.75;;;;;;;17.31;51.72;101108.78;5094701;28;20032;-64
2022/05/31 10:37:57;;;;;;;9.18;7.20;;;;;;;17.27;50.67;101110.69;5094821;28;20028;-64
2022/05/31 10:40:35;;;;;;;8.25;6.50;;;;;;;17.21;51.18;101110.91;5095062;28;20024;-64
2022/05/31 10:43:11;;;;;;;8.40;6.05;;;;;;;17.36;52.12;101105.03;5094541;28;20495;-63
2022/05/31 10:45:38;;;;;;;9.77;6.65;;;;;;;17.44;51.69;101093.31;5094971;28;20128;-63
2022/05/31 10:48:03;;;;;;;8.20;6.47;;;;;;;17.36;51.25;101110.31;5094977;28;20032;-63
2022/05/31 10:50:56;;;;;;;7.68;6.53;;;;;;;17.52;52.16;101113.25;5094813;28;20028;-63
2022/05/31 10:53:35;;;;;;;8.38;5.70;;;;;;;17.43;52.07;101099.53;5090294;28;20040;-63
2022/05/31 10:56:25;;;;;;;8.32;6.63;;;;;;;17.33;51.52;101106.94;5094675;28;20035;-64
2022/05/31 10:58:58;;;;;;;10.20;6.72;;;;;;;17.10;50.99;101101.63;5094942;28;20107;-63
2022/05/31 11:01:57;;;;;;;8.23;6.53;;;;;;;17.05;52.64;101104.44;5094899;28;20071;-64
2022/05/31 11:04:40;;;;;;;10.30;7.30;;;;;;;16.89;51.72;101104.13;5096462;28;20040;-64
2022/05/31 11:07:33;;;;;;;10.45;6.68;;;;;;;16.85;52.84;101113.06;5098598;28;20032;-63
2022/05/31 11:13:37;;;;;;;8.05;6.28;;;;;;;16.69;53.30;101111.88;5098854;28;20119;-63
2022/05/31 11:16:17;;;;;;;10.82;6.10;;;;;;;16.66;54.38;101111.97;5098811;28;20374;-65
2022/05/31 11:18:56;;;;;;;7.38;5.65;;;;;;;16.61;53.65;101103.34;5098383;28;20031;-65
2022/05/31 11:21:49;;;;;;;7.97;5.85;;;;;;;16.64;54.76;101106.75;5098666;28;20096;-64
2022/05/31 11:24:31;;;;;;;8.05;6.07;;;;;;;16.74;54.61;101120.53;5098121;28;20169;-64
2022/05/31 11:27:07;;;;;;;7.88;6.07;;;;;;;16.89;54.60;101117.34;5098298;28;20106;-64
2022/05/31 11:30:18;;;;;;;9.80;5.95;;;;;;;17.04;54.46;101119.44;5098016;28;20035;-63
2022/05/31 11:33:27;;;;;;;9.88;5.75;;;;;;;17.16;54.70;101126.06;5098171;28;20020;-63
2022/05/31 11:36:23;;;;;;;9.18;5.25;;;;;;;17.33;54.62;101120.16;5098555;28;20020;-63
2022/05/31 11:39:13;;;;;;;7.90;5.90;;;;;;;17.53;54.34;101119.41;5098161;28;20061;-63
2022/05/31 11:41:59;;;;;;;7.55;5.68;;;;;;;17.86;53.50;101117.28;5098041;28;20027;-64
2022/05/31 11:44:30;;;;;;;10.57;6.13;;;;;;;18.28;52.76;101122.66;5098241;28;20036;-63
2022/05/31 11:47:01;;;;;;;9.57;6.00;;;;;;;18.51;50.43;101114.66;5098327;28;20072;-64
2022/05/31 11:49:56;;;;;;;5.78;4.85;;;;;;;18.54;47.52;101106.53;5097888;28;20474;-64
2022/05/31 11:52:24;;;;;;;4.40;3.10;;;;;;;18.30;43.62;101113.75;5066824;28;20048;-64
2022/05/31 11:58:01;;;;;;;3.42;2.70;;;;;;;17.56;43.68;101120.16;5098124;28;20067;-65
2022/05/31 12:00:38;;;;;;;5.05;2.58;;;;;;;17.56;45.51;101121.94;5097644;28;20118;-63
2022/05/31 12:03:13;;;;;;;3.47;2.42;;;;;;;17.66;44.04;101126.84;5098015;28;20032;-63